sensor_id;sensor_type;location;lat;lon;timestamp;P1;durP1;ratioP1;P2;durP2;ratioP2
67162;SDS011;54092;53.088;8.850;2022-07-23T00:00:44;11.35;;;3.75;;
67162;SDS011;54092;53.088;8.850;2022-07-23T00:03:10;9.15;;;3.88;;
67162;SDS011;54092;53.088;8.850;2022-07-23T00:05:35;8.30;;;3.60;;
67162;SDS011;54092;53.088;8.850;2022-07-23T00:08:01;9.65;;;3.97;;
67162;SDS011;54092;53.088;8.850;2022-07-23T00:10:26;11.88;;;3.75;;
67162;SDS011;54092;53.088;8.850;2022-07-23T00:12:52;9.95;;;3.88;;
67162;SDS011;54092;53.088;8.850;2022-07-23T00:15:17;8.48;;;3.78;;
67162;SDS011;54092;53.088;8.850;2022-07-23T00:17:43;11.45;;;3.80;;
67162;SDS011;54092;53.088;8.850;2022-07-23T00:20:09;8.70;;;4.00;;
67162;SDS011;54092;53.088;8.850;2022-07-23T00:22:35;10.75;;;3.80;;
67162;SDS011;54092;53.088;8.850;2022-07-23T00:25:01;9.38;;;3.88;;
67162;SDS011;54092;53.088;8.850;2022-07-23T00:27:26;6.93;;;3.65;;
67162;SDS011;54092;53.088;8.850;2022-07-23T00:29:52;8.05;;;3.83;;
67162;SDS011;54092;53.088;8.850;2022-07-23T00:32:17;10.65;;;4.70;;
67162;SDS011;54092;53.088;8.850;2022-07-23T00:34:43;13.18;;;4.55;;
67162;SDS011;54092;53.088;8.850;2022-07-23T00:37:08;10.63;;;4.10;;
67162;SDS011;54092;53.088;8.850;2022-07-23T00:39:33;10.15;;;4.30;;
67162;SDS011;54092;53.088;8.850;2022-07-23T00:41:59;8.93;;;4.13;;
67162;SDS011;54092;53.088;8.850;2022-07-23T00:44:25;11.75;;;4.57;;
67162;SDS011;54092;53.088;8.850;2022-07-23T00:46:53;10.55;;;4.35;;
67162;SDS011;54092;53.088;8.850;2022-07-23T00:49:20;9.18;;;4.45;;
67162;SDS011;54092;53.088;8.850;2022-07-23T00:51:47;16.98;;;5.78;;
67162;SDS011;54092;53.088;8.850;2022-07-23T00:54:14;11.88;;;4.50;;
67162;SDS011;54092;53.088;8.850;2022-07-23T00:56:41;16.85;;;4.72;;
67162;SDS011;54092;53.088;8.850;2022-07-23T00:59:08;9.38;;;3.70;;
67162;SDS011;54092;53.088;8.850;2022-07-23T01:01:34;7.15;;;4.30;;
67162;SDS011;54092;53.088;8.850;2022-07-23T01:03:59;11.82;;;4.45;;
67162;SDS011;54092;53.088;8.850;2022-07-23T01:06:25;9.70;;;3.95;;
67162;SDS011;54092;53.088;8.850;2022-07-23T01:08:50;8.25;;;4.00;;
67162;SDS011;54092;53.088;8.850;2022-07-23T01:11:17;9.95;;;4.68;;
67162;SDS011;54092;53.088;8.850;2022-07-23T01:13:44;11.52;;;4.47;;
67162;SDS011;54092;53.088;8.850;2022-07-23T01:16:09;10.90;;;4.18;;
67162;SDS011;54092;53.088;8.850;2022-07-23T01:18:35;10.80;;;4.43;;
67162;SDS011;54092;53.088;8.850;2022-07-23T01:21:00;8.73;;;4.15;;
67162;SDS011;54092;53.088;8.850;2022-07-23T01:23:26;8.85;;;4.30;;
67162;SDS011;54092;53.088;8.850;2022-07-23T01:25:58;9.65;;;4.00;;
67162;SDS011;54092;53.088;8.850;2022-07-23T01:28:29;10.35;;;4.07;;
67162;SDS011;54092;53.088;8.850;2022-07-23T01:30:55;9.38;;;4.85;;
67162;SDS011;54092;53.088;8.850;2022-07-23T01:33:21;9.80;;;4.50;;
67162;SDS011;54092;53.088;8.850;2022-07-23T01:35:46;8.20;;;4.43;;
67162;SDS011;54092;53.088;8.850;2022-07-23T01:38:12;11.77;;;4.68;;
67162;SDS011;54092;53.088;8.850;2022-07-23T01:40:37;14.95;;;5.20;;
67162;SDS011;54092;53.088;8.850;2022-07-23T01:43:03;9.77;;;4.45;;
67162;SDS011;54092;53.088;8.850;2022-07-23T01:45:28;11.38;;;4.72;;
67162;SDS011;54092;53.088;8.850;2022-07-23T01:47:54;10.77;;;4.90;;
67162;SDS011;54092;53.088;8.850;2022-07-23T01:50:20;10.38;;;5.00;;
67162;SDS011;54092;53.088;8.850;2022-07-23T01:52:45;10.95;;;4.55;;
67162;SDS011;54092;53.088;8.850;2022-07-23T01:55:11;9.95;;;4.47;;
67162;SDS011;54092;53.088;8.850;2022-07-23T01:57:36;7.45;;;4.10;;
67162;SDS011;54092;53.088;8.850;2022-07-23T02:00:02;7.80;;;4.38;;
67162;SDS011;54092;53.088;8.850;2022-07-23T02:02:28;6.88;;;4.13;;
67162;SDS011;54092;53.088;8.850;2022-07-23T02:04:53;10.15;;;3.95;;
67162;SDS011;54092;53.088;8.850;2022-07-23T02:07:19;7.75;;;4.47;;
67162;SDS011;54092;53.088;8.850;2022-07-23T02:09:45;11.30;;;4.20;;
67162;SDS011;54092;53.088;8.850;2022-07-23T02:12:10;10.57;;;4.10;;
67162;SDS011;54092;53.088;8.850;2022-07-23T02:14:36;8.38;;;4.68;;
67162;SDS011;54092;53.088;8.850;2022-07-23T02:17:01;15.98;;;5.25;;
67162;SDS011;54092;53.088;8.850;2022-07-23T02:19:27;10.93;;;4.45;;
67162;SDS011;54092;53.088;8.850;2022-07-23T02:21:52;11.32;;;4.80;;
67162;SDS011;54092;53.088;8.850;2022-07-23T02:24:19;8.65;;;4.30;;
67162;SDS011;54092;53.088;8.850;2022-07-23T02:26:45;9.02;;;4.88;;
67162;SDS011;54092;53.088;8.850;2022-07-23T02:29:10;10.27;;;4.38;;
67162;SDS011;54092;53.088;8.850;2022-07-23T02:31:36;9.73;;;4.22;;
67162;SDS011;54092;53.088;8.850;2022-07-23T02:34:01;16.33;;;5.28;;
67162;SDS011;54092;53.088;8.850;2022-07-23T02:36:27;7.90;;;4.50;;
67162;SDS011;54092;53.088;8.850;2022-07-23T02:38:53;11.20;;;4.28;;
67162;SDS011;54092;53.088;8.850;2022-07-23T02:41:19;10.57;;;4.75;;
67162;SDS011;54092;53.088;8.850;2022-07-23T02:43:44;9.18;;;4.15;;
67162;SDS011;54092;53.088;8.850;2022-07-23T02:46:10;9.73;;;4.10;;
67162;SDS011;54092;53.088;8.850;2022-07-23T02:48:35;10.25;;;4.63;;
67162;SDS011;54092;53.088;8.850;2022-07-23T02:51:01;10.27;;;4.72;;
67162;SDS011;54092;53.088;8.850;2022-07-23T02:53:27;8.50;;;4.40;;
67162;SDS011;54092;53.088;8.850;2022-07-23T02:55:52;8.55;;;4.50;;
67162;SDS011;54092;53.088;8.850;2022-07-23T02:58:17;10.90;;;4.88;;
67162;SDS011;54092;53.088;8.850;2022-07-23T03:00:43;17.38;;;5.30;;
67162;SDS011;54092;53.088;8.850;2022-07-23T03:03:09;12.13;;;4.80;;
67162;SDS011;54092;53.088;8.850;2022-07-23T03:05:34;10.60;;;4.70;;
67162;SDS011;54092;53.088;8.850;2022-07-23T03:08:00;16.23;;;4.85;;
67162;SDS011;54092;53.088;8.850;2022-07-23T03:10:25;10.55;;;4.80;;
67162;SDS011;54092;53.088;8.850;2022-07-23T03:12:51;12.52;;;4.45;;
67162;SDS011;54092;53.088;8.850;2022-07-23T03:15:16;9.27;;;4.72;;
67162;SDS011;54092;53.088;8.850;2022-07-23T03:17:42;9.18;;;4.53;;
67162;SDS011;54092;53.088;8.850;2022-07-23T03:20:08;12.40;;;5.13;;
67162;SDS011;54092;53.088;8.850;2022-07-23T03:22:34;11.00;;;5.38;;
67162;SDS011;54092;53.088;8.850;2022-07-23T03:24:59;11.68;;;5.03;;
67162;SDS011;54092;53.088;8.850;2022-07-23T03:27:26;13.18;;;5.15;;
67162;SDS011;54092;53.088;8.850;2022-07-23T03:29:54;12.75;;;4.82;;
67162;SDS011;54092;53.088;8.850;2022-07-23T03:32:22;15.50;;;5.20;;
67162;SDS011;54092;53.088;8.850;2022-07-23T03:34:48;12.77;;;4.72;;
67162;SDS011;54092;53.088;8.850;2022-07-23T03:37:13;16.33;;;5.10;;
67162;SDS011;54092;53.088;8.850;2022-07-23T03:39:39;10.05;;;4.65;;
67162;SDS011;54092;53.088;8.850;2022-07-23T03:42:05;11.75;;;4.97;;
67162;SDS011;54092;53.088;8.850;2022-07-23T03:44:31;12.23;;;5.65;;
67162;SDS011;54092;53.088;8.850;2022-07-23T03:46:56;12.55;;;4.97;;
67162;SDS011;54092;53.088;8.850;2022-07-23T03:49:22;12.68;;;5.20;;
67162;SDS011;54092;53.088;8.850;2022-07-23T03:51:47;15.20;;;5.60;;
67162;SDS011;54092;53.088;8.850;2022-07-23T03:54:13;15.68;;;4.97;;
67162;SDS011;54092;53.088;8.850;2022-07-23T03:56:38;13.82;;;5.28;;
67162;SDS011;54092;53.088;8.850;2022-07-23T03:59:04;11.43;;;5.40;;
67162;SDS011;54092;53.088;8.850;2022-07-23T04:01:29;12.70;;;5.38;;
67162;SDS011;54092;53.088;8.850;2022-07-23T04:03:55;11.27;;;4.68;;
67162;SDS011;54092;53.088;8.850;2022-07-23T04:06:20;8.68;;;4.60;;
67162;SDS011;54092;53.088;8.850;2022-07-23T04:08:46;11.68;;;5.05;;
67162;SDS011;54092;53.088;8.850;2022-07-23T04:11:12;11.88;;;5.28;;
67162;SDS011;54092;53.088;8.850;2022-07-23T04:13:37;10.07;;;4.78;;
67162;SDS011;54092;53.088;8.850;2022-07-23T04:16:03;11.38;;;5.22;;
67162;SDS011;54092;53.088;8.850;2022-07-23T04:18:29;12.65;;;4.32;;
67162;SDS011;54092;53.088;8.850;2022-07-23T04:20:54;10.32;;;4.40;;
67162;SDS011;54092;53.088;8.850;2022-07-23T04:23:20;13.25;;;5.18;;
67162;SDS011;54092;53.088;8.850;2022-07-23T04:25:46;12.30;;;4.78;;
67162;SDS011;54092;53.088;8.850;2022-07-23T04:28:11;10.35;;;4.53;;
67162;SDS011;54092;53.088;8.850;2022-07-23T04:30:37;13.23;;;4.97;;
67162;SDS011;54092;53.088;8.850;2022-07-23T04:33:02;9.82;;;4.45;;
67162;SDS011;54092;53.088;8.850;2022-07-23T04:35:31;10.98;;;4.45;;
67162;SDS011;54092;53.088;8.850;2022-07-23T04:37:57;12.45;;;5.15;;
67162;SDS011;54092;53.088;8.850;2022-07-23T04:40:23;10.10;;;4.53;;
67162;SDS011;54092;53.088;8.850;2022-07-23T04:42:48;11.45;;;4.72;;
67162;SDS011;54092;53.088;8.850;2022-07-23T04:45:14;13.73;;;4.85;;
67162;SDS011;54092;53.088;8.850;2022-07-23T04:47:39;9.25;;;5.35;;
67162;SDS011;54092;53.088;8.850;2022-07-23T04:50:05;10.07;;;4.50;;
67162;SDS011;54092;53.088;8.850;2022-07-23T04:52:30;13.82;;;4.80;;
67162;SDS011;54092;53.088;8.850;2022-07-23T04:54:56;11.35;;;4.93;;
67162;SDS011;54092;53.088;8.850;2022-07-23T04:57:22;11.27;;;5.10;;
67162;SDS011;54092;53.088;8.850;2022-07-23T04:59:47;18.02;;;5.50;;
67162;SDS011;54092;53.088;8.850;2022-07-23T05:02:12;17.58;;;5.40;;
67162;SDS011;54092;53.088;8.850;2022-07-23T05:04:38;12.18;;;5.00;;
67162;SDS011;54092;53.088;8.850;2022-07-23T05:07:03;11.18;;;4.93;;
67162;SDS011;54092;53.088;8.850;2022-07-23T05:09:29;13.27;;;5.40;;
67162;SDS011;54092;53.088;8.850;2022-07-23T05:11:55;10.88;;;4.72;;
67162;SDS011;54092;53.088;8.850;2022-07-23T05:14:20;13.40;;;5.10;;
67162;SDS011;54092;53.088;8.850;2022-07-23T05:16:46;11.73;;;4.93;;
67162;SDS011;54092;53.088;8.850;2022-07-23T05:19:11;17.35;;;4.97;;
67162;SDS011;54092;53.088;8.850;2022-07-23T05:21:37;12.90;;;5.30;;
67162;SDS011;54092;53.088;8.850;2022-07-23T05:24:03;14.38;;;5.05;;
67162;SDS011;54092;53.088;8.850;2022-07-23T05:26:28;16.20;;;4.93;;
67162;SDS011;54092;53.088;8.850;2022-07-23T05:28:54;9.73;;;4.68;;
67162;SDS011;54092;53.088;8.850;2022-07-23T05:31:19;12.40;;;5.35;;
67162;SDS011;54092;53.088;8.850;2022-07-23T05:33:45;12.77;;;4.75;;
67162;SDS011;54092;53.088;8.850;2022-07-23T05:36:10;11.15;;;5.38;;
67162;SDS011;54092;53.088;8.850;2022-07-23T05:38:36;9.85;;;4.93;;
67162;SDS011;54092;53.088;8.850;2022-07-23T05:41:02;17.65;;;5.25;;
67162;SDS011;54092;53.088;8.850;2022-07-23T05:43:27;14.82;;;5.43;;
67162;SDS011;54092;53.088;8.850;2022-07-23T05:45:53;8.60;;;4.93;;
67162;SDS011;54092;53.088;8.850;2022-07-23T05:48:19;13.07;;;5.50;;
67162;SDS011;54092;53.088;8.850;2022-07-23T05:50:44;9.07;;;4.32;;
67162;SDS011;54092;53.088;8.850;2022-07-23T05:53:11;12.05;;;4.75;;
67162;SDS011;54092;53.088;8.850;2022-07-23T05:55:36;11.82;;;4.43;;
67162;SDS011;54092;53.088;8.850;2022-07-23T05:58:02;10.85;;;4.57;;
67162;SDS011;54092;53.088;8.850;2022-07-23T06:00:28;11.07;;;4.43;;
67162;SDS011;54092;53.088;8.850;2022-07-23T06:02:53;10.40;;;4.53;;
67162;SDS011;54092;53.088;8.850;2022-07-23T06:05:19;10.07;;;3.85;;
67162;SDS011;54092;53.088;8.850;2022-07-23T06:07:45;7.50;;;3.60;;
67162;SDS011;54092;53.088;8.850;2022-07-23T06:10:10;10.55;;;4.22;;
67162;SDS011;54092;53.088;8.850;2022-07-23T06:12:36;11.70;;;4.82;;
67162;SDS011;54092;53.088;8.850;2022-07-23T06:15:02;9.95;;;4.68;;
67162;SDS011;54092;53.088;8.850;2022-07-23T06:17:28;10.20;;;4.28;;
67162;SDS011;54092;53.088;8.850;2022-07-23T06:19:54;7.22;;;3.40;;
67162;SDS011;54092;53.088;8.850;2022-07-23T06:22:20;10.75;;;3.70;;
67162;SDS011;54092;53.088;8.850;2022-07-23T06:24:46;10.93;;;3.72;;
67162;SDS011;54092;53.088;8.850;2022-07-23T06:27:13;9.60;;;3.30;;
67162;SDS011;54092;53.088;8.850;2022-07-23T06:29:38;9.85;;;3.70;;
67162;SDS011;54092;53.088;8.850;2022-07-23T06:32:05;7.63;;;3.60;;
67162;SDS011;54092;53.088;8.850;2022-07-23T06:34:31;8.07;;;3.80;;
67162;SDS011;54092;53.088;8.850;2022-07-23T06:36:57;8.38;;;3.30;;
67162;SDS011;54092;53.088;8.850;2022-07-23T06:39:22;10.68;;;4.15;;
67162;SDS011;54092;53.088;8.850;2022-07-23T06:41:48;8.00;;;3.53;;
67162;SDS011;54092;53.088;8.850;2022-07-23T06:44:13;10.77;;;3.60;;
67162;SDS011;54092;53.088;8.850;2022-07-23T06:46:39;6.57;;;3.40;;
67162;SDS011;54092;53.088;8.850;2022-07-23T06:49:04;8.43;;;3.45;;
67162;SDS011;54092;53.088;8.850;2022-07-23T06:51:30;11.13;;;3.70;;
67162;SDS011;54092;53.088;8.850;2022-07-23T06:53:55;7.85;;;3.22;;
67162;SDS011;54092;53.088;8.850;2022-07-23T06:56:21;18.05;;;3.97;;
67162;SDS011;54092;53.088;8.850;2022-07-23T06:58:47;11.55;;;4.85;;
67162;SDS011;54092;53.088;8.850;2022-07-23T07:01:12;9.57;;;3.10;;
67162;SDS011;54092;53.088;8.850;2022-07-23T07:03:38;10.55;;;3.60;;
67162;SDS011;54092;53.088;8.850;2022-07-23T07:06:03;8.57;;;3.40;;
67162;SDS011;54092;53.088;8.850;2022-07-23T07:08:29;8.93;;;4.05;;
67162;SDS011;54092;53.088;8.850;2022-07-23T07:10:55;8.98;;;3.42;;
67162;SDS011;54092;53.088;8.850;2022-07-23T07:13:20;11.25;;;3.15;;
67162;SDS011;54092;53.088;8.850;2022-07-23T07:15:46;8.45;;;3.42;;
67162;SDS011;54092;53.088;8.850;2022-07-23T07:18:11;6.50;;;3.03;;
67162;SDS011;54092;53.088;8.850;2022-07-23T07:20:37;11.63;;;3.72;;
67162;SDS011;54092;53.088;8.850;2022-07-23T07:23:02;8.55;;;3.00;;
67162;SDS011;54092;53.088;8.850;2022-07-23T07:25:28;5.90;;;3.00;;
67162;SDS011;54092;53.088;8.850;2022-07-23T07:27:53;8.13;;;2.85;;
67162;SDS011;54092;53.088;8.850;2022-07-23T07:30:19;9.13;;;2.97;;
67162;SDS011;54092;53.088;8.850;2022-07-23T07:32:44;9.20;;;2.80;;
67162;SDS011;54092;53.088;8.850;2022-07-23T07:35:10;10.38;;;2.97;;
67162;SDS011;54092;53.088;8.850;2022-07-23T07:37:36;6.00;;;2.88;;
67162;SDS011;54092;53.088;8.850;2022-07-23T07:40:01;7.28;;;3.72;;
67162;SDS011;54092;53.088;8.850;2022-07-23T07:42:27;7.90;;;2.63;;
67162;SDS011;54092;53.088;8.850;2022-07-23T07:44:53;6.82;;;2.70;;
67162;SDS011;54092;53.088;8.850;2022-07-23T07:47:18;6.63;;;3.30;;
67162;SDS011;54092;53.088;8.850;2022-07-23T07:49:44;5.78;;;2.90;;
67162;SDS011;54092;53.088;8.850;2022-07-23T07:52:10;7.57;;;3.53;;
67162;SDS011;54092;53.088;8.850;2022-07-23T07:54:36;7.03;;;3.03;;
67162;SDS011;54092;53.088;8.850;2022-07-23T07:57:02;9.35;;;3.33;;
67162;SDS011;54092;53.088;8.850;2022-07-23T07:59:28;10.80;;;3.50;;
67162;SDS011;54092;53.088;8.850;2022-07-23T08:01:53;9.25;;;3.20;;
67162;SDS011;54092;53.088;8.850;2022-07-23T08:04:19;7.47;;;3.17;;
67162;SDS011;54092;53.088;8.850;2022-07-23T08:06:44;8.27;;;3.97;;
67162;SDS011;54092;53.088;8.850;2022-07-23T08:09:10;11.07;;;3.60;;
67162;SDS011;54092;53.088;8.850;2022-07-23T08:11:35;9.55;;;4.18;;
67162;SDS011;54092;53.088;8.850;2022-07-23T08:14:01;7.43;;;4.40;;
67162;SDS011;54092;53.088;8.850;2022-07-23T08:16:27;11.13;;;5.25;;
67162;SDS011;54092;53.088;8.850;2022-07-23T08:18:52;11.27;;;4.28;;
67162;SDS011;54092;53.088;8.850;2022-07-23T08:21:18;9.73;;;4.72;;
67162;SDS011;54092;53.088;8.850;2022-07-23T08:23:43;7.50;;;4.32;;
67162;SDS011;54092;53.088;8.850;2022-07-23T08:26:09;11.50;;;5.07;;
67162;SDS011;54092;53.088;8.850;2022-07-23T08:28:35;10.45;;;4.90;;
67162;SDS011;54092;53.088;8.850;2022-07-23T08:31:01;10.30;;;4.90;;
67162;SDS011;54092;53.088;8.850;2022-07-23T08:33:27;11.05;;;4.90;;
67162;SDS011;54092;53.088;8.850;2022-07-23T08:35:53;10.18;;;4.10;;
67162;SDS011;54092;53.088;8.850;2022-07-23T08:38:19;10.27;;;3.90;;
67162;SDS011;54092;53.088;8.850;2022-07-23T08:40:50;11.75;;;3.83;;
67162;SDS011;54092;53.088;8.850;2022-07-23T08:43:21;6.22;;;3.30;;
67162;SDS011;54092;53.088;8.850;2022-07-23T08:45:49;9.00;;;3.10;;
67162;SDS011;54092;53.088;8.850;2022-07-23T08:50:52;7.53;;;3.28;;
67162;SDS011;54092;53.088;8.850;2022-07-23T08:53:20;7.88;;;3.00;;
67162;SDS011;54092;53.088;8.850;2022-07-23T08:55:47;8.15;;;3.80;;
67162;SDS011;54092;53.088;8.850;2022-07-23T08:58:15;9.90;;;4.18;;
67162;SDS011;54092;53.088;8.850;2022-07-23T09:00:41;8.90;;;2.67;;
67162;SDS011;54092;53.088;8.850;2022-07-23T09:03:07;8.65;;;2.72;;
67162;SDS011;54092;53.088;8.850;2022-07-23T09:05:41;7.85;;;2.80;;
67162;SDS011;54092;53.088;8.850;2022-07-23T09:10:42;5.65;;;2.60;;
67162;SDS011;54092;53.088;8.850;2022-07-23T09:15:54;5.45;;;2.95;;
67162;SDS011;54092;53.088;8.850;2022-07-23T09:18:30;6.28;;;2.65;;
67162;SDS011;54092;53.088;8.850;2022-07-23T09:21:17;5.43;;;2.30;;
67162;SDS011;54092;53.088;8.850;2022-07-23T09:26:25;5.63;;;2.60;;
67162;SDS011;54092;53.088;8.850;2022-07-23T09:31:23;7.32;;;2.67;;
67162;SDS011;54092;53.088;8.850;2022-07-23T09:33:49;6.68;;;2.67;;
67162;SDS011;54092;53.088;8.850;2022-07-23T09:36:15;4.45;;;2.70;;
67162;SDS011;54092;53.088;8.850;2022-07-23T09:38:50;4.20;;;2.22;;
67162;SDS011;54092;53.088;8.850;2022-07-23T09:41:17;7.75;;;2.40;;
67162;SDS011;54092;53.088;8.850;2022-07-23T09:43:43;7.07;;;2.83;;
67162;SDS011;54092;53.088;8.850;2022-07-23T09:46:19;5.53;;;2.63;;
67162;SDS011;54092;53.088;8.850;2022-07-23T09:48:49;5.53;;;2.42;;
67162;SDS011;54092;53.088;8.850;2022-07-23T09:51:19;5.40;;;2.30;;
67162;SDS011;54092;53.088;8.850;2022-07-23T09:53:54;4.72;;;2.15;;
67162;SDS011;54092;53.088;8.850;2022-07-23T09:56:20;5.60;;;2.60;;
67162;SDS011;54092;53.088;8.850;2022-07-23T09:58:45;5.13;;;2.60;;
67162;SDS011;54092;53.088;8.850;2022-07-23T10:01:15;4.38;;;2.20;;
67162;SDS011;54092;53.088;8.850;2022-07-23T10:03:41;3.58;;;2.22;;
67162;SDS011;54092;53.088;8.850;2022-07-23T10:06:10;6.63;;;2.67;;
67162;SDS011;54092;53.088;8.850;2022-07-23T10:08:39;4.05;;;2.10;;
67162;SDS011;54092;53.088;8.850;2022-07-23T10:13:34;5.65;;;2.20;;
67162;SDS011;54092;53.088;8.850;2022-07-23T10:16:17;4.90;;;1.90;;
67162;SDS011;54092;53.088;8.850;2022-07-23T10:18:43;4.30;;;2.08;;
67162;SDS011;54092;53.088;8.850;2022-07-23T10:21:09;3.60;;;2.08;;
67162;SDS011;54092;53.088;8.850;2022-07-23T10:23:39;4.60;;;2.10;;
67162;SDS011;54092;53.088;8.850;2022-07-23T10:28:56;6.47;;;2.47;;
67162;SDS011;54092;53.088;8.850;2022-07-23T10:31:39;6.35;;;2.03;;
67162;SDS011;54092;53.088;8.850;2022-07-23T10:34:18;4.25;;;2.17;;
67162;SDS011;54092;53.088;8.850;2022-07-23T10:36:55;5.25;;;2.10;;
67162;SDS011;54092;53.088;8.850;2022-07-23T10:39:31;6.07;;;2.47;;
67162;SDS011;54092;53.088;8.850;2022-07-23T10:42:08;5.80;;;2.20;;
67162;SDS011;54092;53.088;8.850;2022-07-23T10:44:42;6.35;;;2.30;;
67162;SDS011;54092;53.088;8.850;2022-07-23T10:47:10;4.22;;;1.95;;
67162;SDS011;54092;53.088;8.850;2022-07-23T10:49:45;6.97;;;2.25;;
67162;SDS011;54092;53.088;8.850;2022-07-23T10:54:44;5.47;;;2.60;;
67162;SDS011;54092;53.088;8.850;2022-07-23T10:57:18;9.93;;;2.30;;
67162;SDS011;54092;53.088;8.850;2022-07-23T11:02:34;8.00;;;2.20;;
67162;SDS011;54092;53.088;8.850;2022-07-23T11:05:04;5.35;;;2.17;;
67162;SDS011;54092;53.088;8.850;2022-07-23T11:07:33;5.38;;;2.15;;
67162;SDS011;54092;53.088;8.850;2022-07-23T11:09:59;5.80;;;2.30;;
67162;SDS011;54092;53.088;8.850;2022-07-23T11:15:00;11.93;;;3.20;;
67162;SDS011;54092;53.088;8.850;2022-07-23T11:17:29;8.95;;;2.85;;
67162;SDS011;54092;53.088;8.850;2022-07-23T11:25:03;6.65;;;2.95;;
67162;SDS011;54092;53.088;8.850;2022-07-23T11:35:32;6.82;;;2.80;;
67162;SDS011;54092;53.088;8.850;2022-07-23T11:38:18;6.22;;;2.47;;
67162;SDS011;54092;53.088;8.850;2022-07-23T11:40:45;4.82;;;2.50;;
67162;SDS011;54092;53.088;8.850;2022-07-23T11:43:23;5.55;;;2.15;;
67162;SDS011;54092;53.088;8.850;2022-07-23T11:45:50;5.45;;;2.33;;
67162;SDS011;54092;53.088;8.850;2022-07-23T11:48:24;7.07;;;2.80;;
67162;SDS011;54092;53.088;8.850;2022-07-23T11:50:55;7.03;;;2.83;;
67162;SDS011;54092;53.088;8.850;2022-07-23T11:53:25;5.45;;;2.47;;
67162;SDS011;54092;53.088;8.850;2022-07-23T11:56:03;6.75;;;2.30;;
67162;SDS011;54092;53.088;8.850;2022-07-23T11:58:33;7.80;;;2.80;;
67162;SDS011;54092;53.088;8.850;2022-07-23T12:00:58;6.97;;;2.70;;
67162;SDS011;54092;53.088;8.850;2022-07-23T12:03:24;8.73;;;3.10;;
67162;SDS011;54092;53.088;8.850;2022-07-23T12:05:50;7.20;;;3.00;;
67162;SDS011;54092;53.088;8.850;2022-07-23T12:08:22;8.77;;;3.38;;
67162;SDS011;54092;53.088;8.850;2022-07-23T12:10:48;9.00;;;2.70;;
67162;SDS011;54092;53.088;8.850;2022-07-23T12:13:15;8.55;;;2.70;;
67162;SDS011;54092;53.088;8.850;2022-07-23T12:15:43;5.57;;;2.50;;
67162;SDS011;54092;53.088;8.850;2022-07-23T12:18:11;5.50;;;2.50;;
67162;SDS011;54092;53.088;8.850;2022-07-23T12:20:40;3.97;;;2.10;;
67162;SDS011;54092;53.088;8.850;2022-07-23T12:23:14;3.65;;;2.33;;
67162;SDS011;54092;53.088;8.850;2022-07-23T12:25:42;6.50;;;2.78;;
67162;SDS011;54092;53.088;8.850;2022-07-23T12:30:45;10.45;;;3.13;;
67162;SDS011;54092;53.088;8.850;2022-07-23T12:33:14;7.70;;;3.10;;
67162;SDS011;54092;53.088;8.850;2022-07-23T12:35:46;8.43;;;2.70;;
67162;SDS011;54092;53.088;8.850;2022-07-23T12:38:13;7.55;;;3.20;;
67162;SDS011;54092;53.088;8.850;2022-07-23T12:40:44;8.07;;;2.90;;
67162;SDS011;54092;53.088;8.850;2022-07-23T12:43:18;6.78;;;2.67;;
67162;SDS011;54092;53.088;8.850;2022-07-23T12:45:47;7.75;;;2.38;;
67162;SDS011;54092;53.088;8.850;2022-07-23T12:53:27;6.13;;;2.53;;
67162;SDS011;54092;53.088;8.850;2022-07-23T12:55:59;5.45;;;2.42;;
67162;SDS011;54092;53.088;8.850;2022-07-23T12:58:26;9.27;;;2.92;;
67162;SDS011;54092;53.088;8.850;2022-07-23T13:01:05;4.25;;;2.20;;
67162;SDS011;54092;53.088;8.850;2022-07-23T13:03:35;5.47;;;2.55;;
67162;SDS011;54092;53.088;8.850;2022-07-23T13:06:04;5.10;;;2.42;;
67162;SDS011;54092;53.088;8.850;2022-07-23T13:08:31;6.82;;;2.80;;
67162;SDS011;54092;53.088;8.850;2022-07-23T13:10:58;4.93;;;2.58;;
67162;SDS011;54092;53.088;8.850;2022-07-23T13:13:26;6.85;;;2.42;;
67162;SDS011;54092;53.088;8.850;2022-07-23T13:15:53;5.63;;;2.55;;
67162;SDS011;54092;53.088;8.850;2022-07-23T13:18:19;7.18;;;2.20;;
67162;SDS011;54092;53.088;8.850;2022-07-23T13:20:46;5.43;;;2.22;;
67162;SDS011;54092;53.088;8.850;2022-07-23T13:23:12;5.70;;;2.20;;
67162;SDS011;54092;53.088;8.850;2022-07-23T13:25:38;6.53;;;2.15;;
67162;SDS011;54092;53.088;8.850;2022-07-23T13:28:04;3.40;;;2.15;;
67162;SDS011;54092;53.088;8.850;2022-07-23T13:30:29;5.10;;;2.08;;
67162;SDS011;54092;53.088;8.850;2022-07-23T13:32:55;5.40;;;2.30;;
67162;SDS011;54092;53.088;8.850;2022-07-23T13:35:21;7.22;;;2.25;;
67162;SDS011;54092;53.088;8.850;2022-07-23T13:37:47;4.70;;;2.10;;
67162;SDS011;54092;53.088;8.850;2022-07-23T13:40:12;5.13;;;2.55;;
67162;SDS011;54092;53.088;8.850;2022-07-23T13:42:38;5.93;;;2.35;;
67162;SDS011;54092;53.088;8.850;2022-07-23T13:45:04;8.63;;;2.20;;
67162;SDS011;54092;53.088;8.850;2022-07-23T13:47:31;3.65;;;2.10;;
67162;SDS011;54092;53.088;8.850;2022-07-23T13:49:56;6.72;;;2.10;;
67162;SDS011;54092;53.088;8.850;2022-07-23T13:52:22;6.65;;;2.30;;
67162;SDS011;54092;53.088;8.850;2022-07-23T13:54:47;6.18;;;2.40;;
67162;SDS011;54092;53.088;8.850;2022-07-23T13:57:13;3.70;;;2.13;;
67162;SDS011;54092;53.088;8.850;2022-07-23T13:59:39;6.13;;;2.30;;
67162;SDS011;54092;53.088;8.850;2022-07-23T14:02:04;6.78;;;2.40;;
67162;SDS011;54092;53.088;8.850;2022-07-23T14:04:30;3.22;;;2.00;;
67162;SDS011;54092;53.088;8.850;2022-07-23T14:06:56;3.75;;;2.30;;
67162;SDS011;54092;53.088;8.850;2022-07-23T14:09:22;5.47;;;2.03;;
67162;SDS011;54092;53.088;8.850;2022-07-23T14:11:49;5.35;;;2.10;;
67162;SDS011;54092;53.088;8.850;2022-07-23T14:14:16;8.77;;;2.55;;
67162;SDS011;54092;53.088;8.850;2022-07-23T14:16:42;3.80;;;2.15;;
67162;SDS011;54092;53.088;8.850;2022-07-23T14:19:08;5.25;;;2.30;;
67162;SDS011;54092;53.088;8.850;2022-07-23T14:21:34;5.65;;;2.30;;
67162;SDS011;54092;53.088;8.850;2022-07-23T14:23:59;9.52;;;2.45;;
67162;SDS011;54092;53.088;8.850;2022-07-23T14:26:25;6.03;;;2.53;;
67162;SDS011;54092;53.088;8.850;2022-07-23T14:28:52;5.00;;;2.10;;
67162;SDS011;54092;53.088;8.850;2022-07-23T14:31:17;3.70;;;2.22;;
67162;SDS011;54092;53.088;8.850;2022-07-23T14:33:43;6.40;;;2.70;;
67162;SDS011;54092;53.088;8.850;2022-07-23T14:36:08;9.68;;;2.63;;
67162;SDS011;54092;53.088;8.850;2022-07-23T14:38:34;4.10;;;2.33;;
67162;SDS011;54092;53.088;8.850;2022-07-23T14:40:59;8.15;;;2.80;;
67162;SDS011;54092;53.088;8.850;2022-07-23T14:43:25;6.82;;;2.80;;
67162;SDS011;54092;53.088;8.850;2022-07-23T14:45:50;7.97;;;2.60;;
67162;SDS011;54092;53.088;8.850;2022-07-23T14:48:16;3.90;;;2.22;;
67162;SDS011;54092;53.088;8.850;2022-07-23T14:50:41;6.85;;;3.03;;
67162;SDS011;54092;53.088;8.850;2022-07-23T14:53:07;6.43;;;2.58;;
67162;SDS011;54092;53.088;8.850;2022-07-23T14:55:33;3.55;;;2.35;;
67162;SDS011;54092;53.088;8.850;2022-07-23T14:57:59;7.07;;;2.72;;
67162;SDS011;54092;53.088;8.850;2022-07-23T15:00:24;5.45;;;2.50;;
67162;SDS011;54092;53.088;8.850;2022-07-23T15:02:51;5.40;;;2.30;;
67162;SDS011;54092;53.088;8.850;2022-07-23T15:05:17;6.90;;;2.75;;
67162;SDS011;54092;53.088;8.850;2022-07-23T15:07:43;6.53;;;2.75;;
67162;SDS011;54092;53.088;8.850;2022-07-23T15:10:08;5.93;;;2.85;;
67162;SDS011;54092;53.088;8.850;2022-07-23T15:12:34;6.45;;;3.05;;
67162;SDS011;54092;53.088;8.850;2022-07-23T15:14:59;6.45;;;2.83;;
67162;SDS011;54092;53.088;8.850;2022-07-23T15:17:25;5.57;;;2.85;;
67162;SDS011;54092;53.088;8.850;2022-07-23T15:19:50;8.05;;;2.67;;
67162;SDS011;54092;53.088;8.850;2022-07-23T15:22:16;5.75;;;2.40;;
67162;SDS011;54092;53.088;8.850;2022-07-23T15:24:42;5.05;;;2.50;;
67162;SDS011;54092;53.088;8.850;2022-07-23T15:27:07;8.10;;;2.50;;